sensor_id;sensor_type;location;lat;lon;timestamp;P1;durP1;ratioP1;P2;durP2;ratioP2
22871;SDS011;11603;44.910;8.630;2023-02-28T00:00:51;7.95;;;7.15;;
22871;SDS011;11603;44.910;8.630;2023-02-28T00:03:17;12.45;;;7.82;;
22871;SDS011;11603;44.910;8.630;2023-02-28T00:05:42;10.05;;;7.50;;
22871;SDS011;11603;44.910;8.630;2023-02-28T00:08:08;10.48;;;7.85;;
22871;SDS011;11603;44.910;8.630;2023-02-28T00:10:34;9.43;;;7.63;;
22871;SDS011;11603;44.910;8.630;2023-02-28T00:13:02;12.10;;;9.73;;
22871;SDS011;11603;44.910;8.630;2023-02-28T00:15:31;10.68;;;8.55;;
22871;SDS011;11603;44.910;8.630;2023-02-28T00:17:56;11.02;;;8.15;;
22871;SDS011;11603;44.910;8.630;2023-02-28T00:20:22;11.32;;;7.72;;
22871;SDS011;11603;44.910;8.630;2023-02-28T00:22:49;10.20;;;8.57;;
22871;SDS011;11603;44.910;8.630;2023-02-28T00:25:16;9.80;;;8.52;;
22871;SDS011;11603;44.910;8.630;2023-02-28T00:27:44;14.45;;;8.48;;
22871;SDS011;11603;44.910;8.630;2023-02-28T00:30:11;12.30;;;9.40;;
22871;SDS011;11603;44.910;8.630;2023-02-28T00:32:39;12.38;;;9.15;;
22871;SDS011;11603;44.910;8.630;2023-02-28T00:35:05;12.32;;;9.15;;
22871;SDS011;11603;44.910;8.630;2023-02-28T00:37:31;11.98;;;9.40;;
22871;SDS011;11603;44.910;8.630;2023-02-28T00:39:57;10.27;;;7.78;;
22871;SDS011;11603;44.910;8.630;2023-02-28T00:42:23;12.85;;;9.20;;
22871;SDS011;11603;44.910;8.630;2023-02-28T00:44:49;10.48;;;7.95;;
22871;SDS011;11603;44.910;8.630;2023-02-28T00:47:15;11.70;;;8.60;;
22871;SDS011;11603;44.910;8.630;2023-02-28T00:49:42;15.63;;;8.45;;
22871;SDS011;11603;44.910;8.630;2023-02-28T00:52:08;11.80;;;8.40;;
22871;SDS011;11603;44.910;8.630;2023-02-28T00:54:34;11.27;;;8.80;;
22871;SDS011;11603;44.910;8.630;2023-02-28T00:57:00;11.95;;;8.40;;
22871;SDS011;11603;44.910;8.630;2023-02-28T00:59:26;12.50;;;8.40;;
22871;SDS011;11603;44.910;8.630;2023-02-28T01:01:51;14.18;;;9.10;;
22871;SDS011;11603;44.910;8.630;2023-02-28T01:04:17;11.68;;;8.88;;
22871;SDS011;11603;44.910;8.630;2023-02-28T01:06:42;11.05;;;8.23;;
22871;SDS011;11603;44.910;8.630;2023-02-28T01:09:09;12.43;;;8.70;;
22871;SDS011;11603;44.910;8.630;2023-02-28T01:11:36;14.95;;;8.63;;
22871;SDS011;11603;44.910;8.630;2023-02-28T01:14:02;14.18;;;8.95;;
22871;SDS011;11603;44.910;8.630;2023-02-28T01:16:29;12.48;;;8.90;;
22871;SDS011;11603;44.910;8.630;2023-02-28T01:18:54;11.60;;;8.63;;
22871;SDS011;11603;44.910;8.630;2023-02-28T01:21:21;10.10;;;8.20;;
22871;SDS011;11603;44.910;8.630;2023-02-28T01:23:47;9.75;;;7.55;;
22871;SDS011;11603;44.910;8.630;2023-02-28T01:26:15;11.43;;;8.15;;
22871;SDS011;11603;44.910;8.630;2023-02-28T01:28:43;11.55;;;8.18;;
22871;SDS011;11603;44.910;8.630;2023-02-28T01:31:09;13.00;;;8.40;;
22871;SDS011;11603;44.910;8.630;2023-02-28T01:33:36;12.27;;;8.02;;
22871;SDS011;11603;44.910;8.630;2023-02-28T01:38:34;15.02;;;8.35;;
22871;SDS011;11603;44.910;8.630;2023-02-28T01:41:00;11.18;;;8.05;;
22871;SDS011;11603;44.910;8.630;2023-02-28T01:43:27;11.77;;;8.20;;
22871;SDS011;11603;44.910;8.630;2023-02-28T01:46:15;11.85;;;8.13;;
22871;SDS011;11603;44.910;8.630;2023-02-28T01:48:42;13.73;;;7.70;;
22871;SDS011;11603;44.910;8.630;2023-02-28T01:51:17;10.48;;;8.07;;
22871;SDS011;11603;44.910;8.630;2023-02-28T01:53:47;11.73;;;8.32;;
22871;SDS011;11603;44.910;8.630;2023-02-28T01:56:19;11.70;;;8.52;;
22871;SDS011;11603;44.910;8.630;2023-02-28T01:58:48;13.43;;;7.55;;
22871;SDS011;11603;44.910;8.630;2023-02-28T02:01:16;12.77;;;7.38;;
22871;SDS011;11603;44.910;8.630;2023-02-28T02:03:50;12.25;;;7.80;;
22871;SDS011;11603;44.910;8.630;2023-02-28T02:06:24;9.85;;;7.50;;
22871;SDS011;11603;44.910;8.630;2023-02-28T02:08:53;11.13;;;8.00;;
22871;SDS011;11603;44.910;8.630;2023-02-28T02:11:20;13.50;;;8.32;;
22871;SDS011;11603;44.910;8.630;2023-02-28T02:14:04;10.50;;;7.78;;
22871;SDS011;11603;44.910;8.630;2023-02-28T02:25:27;13.32;;;8.77;;
22871;SDS011;11603;44.910;8.630;2023-02-28T02:36:53;13.55;;;8.65;;
22871;SDS011;11603;44.910;8.630;2023-02-28T02:39:30;14.95;;;8.68;;
22871;SDS011;11603;44.910;8.630;2023-02-28T02:42:04;12.30;;;8.55;;
22871;SDS011;11603;44.910;8.630;2023-02-28T02:45:40;12.80;;;7.80;;
22871;SDS011;11603;44.910;8.630;2023-02-28T02:47:53;12.25;;;8.07;;
22871;SDS011;11603;44.910;8.630;2023-02-28T02:50:23;12.32;;;8.30;;
22871;SDS011;11603;44.910;8.630;2023-02-28T02:52:57;14.30;;;8.02;;
22871;SDS011;11603;44.910;8.630;2023-02-28T02:55:28;14.02;;;8.02;;
22871;SDS011;11603;44.910;8.630;2023-02-28T02:57:59;10.85;;;8.00;;
22871;SDS011;11603;44.910;8.630;2023-02-28T03:00:42;12.15;;;8.52;;
22871;SDS011;11603;44.910;8.630;2023-02-28T03:03:13;13.55;;;8.65;;
22871;SDS011;11603;44.910;8.630;2023-02-28T03:05:45;12.68;;;8.32;;
22871;SDS011;11603;44.910;8.630;2023-02-28T03:08:12;15.45;;;7.95;;
22871;SDS011;11603;44.910;8.630;2023-02-28T03:10:39;10.45;;;8.27;;
22871;SDS011;11603;44.910;8.630;2023-02-28T03:19:02;12.02;;;7.95;;
22871;SDS011;11603;44.910;8.630;2023-02-28T03:21:43;14.18;;;8.75;;
22871;SDS011;11603;44.910;8.630;2023-02-28T03:27:09;13.32;;;7.70;;
22871;SDS011;11603;44.910;8.630;2023-02-28T03:29:48;12.85;;;7.82;;
22871;SDS011;11603;44.910;8.630;2023-02-28T03:32:24;17.30;;;8.07;;
22871;SDS011;11603;44.910;8.630;2023-02-28T03:37:59;10.80;;;7.82;;
22871;SDS011;11603;44.910;8.630;2023-02-28T03:40:31;11.90;;;8.05;;
22871;SDS011;11603;44.910;8.630;2023-02-28T03:43:03;13.20;;;7.45;;
22871;SDS011;11603;44.910;8.630;2023-02-28T03:45:33;11.82;;;8.23;;
22871;SDS011;11603;44.910;8.630;2023-02-28T03:48:08;12.10;;;8.13;;
22871;SDS011;11603;44.910;8.630;2023-02-28T03:50:41;13.52;;;8.02;;
22871;SDS011;11603;44.910;8.630;2023-02-28T03:53:14;12.93;;;7.85;;
22871;SDS011;11603;44.910;8.630;2023-02-28T03:56:06;13.40;;;7.97;;
22871;SDS011;11603;44.910;8.630;2023-02-28T03:58:32;9.75;;;7.53;;
22871;SDS011;11603;44.910;8.630;2023-02-28T04:01:43;11.32;;;7.95;;
22871;SDS011;11603;44.910;8.630;2023-02-28T04:04:09;12.13;;;8.40;;
22871;SDS011;11603;44.910;8.630;2023-02-28T04:06:35;11.98;;;8.18;;
22871;SDS011;11603;44.910;8.630;2023-02-28T04:09:01;8.93;;;7.25;;
22871;SDS011;11603;44.910;8.630;2023-02-28T04:11:36;10.20;;;7.65;;
22871;SDS011;11603;44.910;8.630;2023-02-28T04:14:04;11.63;;;8.27;;
22871;SDS011;11603;44.910;8.630;2023-02-28T04:16:31;11.63;;;8.50;;
22871;SDS011;11603;44.910;8.630;2023-02-28T04:18:58;12.93;;;8.63;;
22871;SDS011;11603;44.910;8.630;2023-02-28T04:21:34;13.02;;;8.57;;
22871;SDS011;11603;44.910;8.630;2023-02-28T04:24:06;12.75;;;7.85;;
22871;SDS011;11603;44.910;8.630;2023-02-28T04:26:39;10.98;;;8.27;;
22871;SDS011;11603;44.910;8.630;2023-02-28T04:29:06;13.25;;;8.52;;
22871;SDS011;11603;44.910;8.630;2023-02-28T04:31:32;10.88;;;7.95;;
22871;SDS011;11603;44.910;8.630;2023-02-28T04:33:58;12.20;;;7.78;;
22871;SDS011;11603;44.910;8.630;2023-02-28T04:36:24;12.38;;;8.55;;
22871;SDS011;11603;44.910;8.630;2023-02-28T04:38:50;10.25;;;7.82;;
22871;SDS011;11603;44.910;8.630;2023-02-28T04:41:16;11.98;;;7.68;;
22871;SDS011;11603;44.910;8.630;2023-02-28T04:43:42;12.77;;;8.25;;
22871;SDS011;11603;44.910;8.630;2023-02-28T04:46:07;12.30;;;8.52;;
22871;SDS011;11603;44.910;8.630;2023-02-28T04:48:35;14.13;;;8.10;;
22871;SDS011;11603;44.910;8.630;2023-02-28T04:53:35;11.43;;;8.27;;
22871;SDS011;11603;44.910;8.630;2023-02-28T04:56:02;10.98;;;8.57;;
22871;SDS011;11603;44.910;8.630;2023-02-28T04:58:28;15.07;;;8.85;;
22871;SDS011;11603;44.910;8.630;2023-02-28T05:01:00;18.15;;;8.48;;
22871;SDS011;11603;44.910;8.630;2023-02-28T05:03:27;13.93;;;9.43;;
22871;SDS011;11603;44.910;8.630;2023-02-28T05:05:53;14.65;;;8.07;;
22871;SDS011;11603;44.910;8.630;2023-02-28T05:08:18;11.93;;;8.63;;
22871;SDS011;11603;44.910;8.630;2023-02-28T05:10:45;11.25;;;8.50;;
22871;SDS011;11603;44.910;8.630;2023-02-28T05:13:13;14.90;;;9.00;;
22871;SDS011;11603;44.910;8.630;2023-02-28T05:15:38;10.57;;;8.32;;
22871;SDS011;11603;44.910;8.630;2023-02-28T05:18:04;14.13;;;8.93;;
22871;SDS011;11603;44.910;8.630;2023-02-28T05:20:30;14.90;;;9.20;;
22871;SDS011;11603;44.910;8.630;2023-02-28T05:22:56;14.25;;;8.82;;
22871;SDS011;11603;44.910;8.630;2023-02-28T05:25:25;13.75;;;9.30;;
22871;SDS011;11603;44.910;8.630;2023-02-28T05:27:50;13.38;;;9.25;;
22871;SDS011;11603;44.910;8.630;2023-02-28T05:30:16;15.07;;;8.82;;
22871;SDS011;11603;44.910;8.630;2023-02-28T05:32:41;16.65;;;9.52;;
22871;SDS011;11603;44.910;8.630;2023-02-28T05:35:10;13.80;;;8.73;;
22871;SDS011;11603;44.910;8.630;2023-02-28T05:37:37;15.57;;;9.60;;
22871;SDS011;11603;44.910;8.630;2023-02-28T05:40:04;14.32;;;9.30;;
22871;SDS011;11603;44.910;8.630;2023-02-28T05:42:32;12.00;;;8.52;;
22871;SDS011;11603;44.910;8.630;2023-02-28T05:44:58;16.83;;;8.82;;
22871;SDS011;11603;44.910;8.630;2023-02-28T05:47:24;11.02;;;8.95;;
22871;SDS011;11603;44.910;8.630;2023-02-28T05:49:51;12.02;;;9.13;;
22871;SDS011;11603;44.910;8.630;2023-02-28T05:52:16;13.13;;;8.93;;
22871;SDS011;11603;44.910;8.630;2023-02-28T05:54:42;15.80;;;8.82;;
22871;SDS011;11603;44.910;8.630;2023-02-28T05:57:07;16.70;;;9.73;;
22871;SDS011;11603;44.910;8.630;2023-02-28T05:59:33;16.27;;;9.10;;
22871;SDS011;11603;44.910;8.630;2023-02-28T06:01:58;14.55;;;9.25;;
22871;SDS011;11603;44.910;8.630;2023-02-28T06:04:24;12.85;;;8.90;;
22871;SDS011;11603;44.910;8.630;2023-02-28T06:06:49;14.23;;;9.30;;
22871;SDS011;11603;44.910;8.630;2023-02-28T06:09:16;12.70;;;8.70;;
22871;SDS011;11603;44.910;8.630;2023-02-28T06:11:43;11.95;;;8.52;;
22871;SDS011;11603;44.910;8.630;2023-02-28T06:14:16;15.02;;;9.27;;
22871;SDS011;11603;44.910;8.630;2023-02-28T06:16:42;12.50;;;9.40;;
22871;SDS011;11603;44.910;8.630;2023-02-28T06:19:08;12.40;;;9.35;;
22871;SDS011;11603;44.910;8.630;2023-02-28T06:21:34;14.68;;;10.25;;
22871;SDS011;11603;44.910;8.630;2023-02-28T06:24:01;14.13;;;9.75;;
22871;SDS011;11603;44.910;8.630;2023-02-28T06:26:27;11.70;;;8.52;;
22871;SDS011;11603;44.910;8.630;2023-02-28T06:28:53;12.07;;;8.70;;
22871;SDS011;11603;44.910;8.630;2023-02-28T06:31:19;14.85;;;9.35;;
22871;SDS011;11603;44.910;8.630;2023-02-28T06:33:45;12.93;;;9.20;;
22871;SDS011;11603;44.910;8.630;2023-02-28T06:36:12;11.63;;;8.82;;
22871;SDS011;11603;44.910;8.630;2023-02-28T06:38:38;15.50;;;10.48;;
22871;SDS011;11603;44.910;8.630;2023-02-28T06:41:05;15.27;;;9.10;;
22871;SDS011;11603;44.910;8.630;2023-02-28T06:43:32;14.00;;;9.98;;
22871;SDS011;11603;44.910;8.630;2023-02-28T06:46:01;12.57;;;9.23;;
22871;SDS011;11603;44.910;8.630;2023-02-28T06:48:29;12.32;;;9.50;;
22871;SDS011;11603;44.910;8.630;2023-02-28T06:51:10;11.50;;;9.02;;
22871;SDS011;11603;44.910;8.630;2023-02-28T06:53:39;12.05;;;8.95;;
22871;SDS011;11603;44.910;8.630;2023-02-28T06:56:07;12.07;;;8.93;;
22871;SDS011;11603;44.910;8.630;2023-02-28T06:58:34;12.20;;;8.65;;
22871;SDS011;11603;44.910;8.630;2023-02-28T07:01:00;13.70;;;9.43;;
22871;SDS011;11603;44.910;8.630;2023-02-28T07:03:26;13.50;;;8.93;;
22871;SDS011;11603;44.910;8.630;2023-02-28T07:05:52;11.88;;;9.55;;
22871;SDS011;11603;44.910;8.630;2023-02-28T07:08:18;12.75;;;9.40;;
22871;SDS011;11603;44.910;8.630;2023-02-28T07:10:43;12.57;;;9.15;;
22871;SDS011;11603;44.910;8.630;2023-02-28T07:13:09;15.20;;;8.80;;
22871;SDS011;11603;44.910;8.630;2023-02-28T07:15:35;12.90;;;9.57;;
22871;SDS011;11603;44.910;8.630;2023-02-28T07:18:02;15.77;;;9.40;;
22871;SDS011;11603;44.910;8.630;2023-02-28T07:20:28;13.23;;;8.88;;
22871;SDS011;11603;44.910;8.630;2023-02-28T07:22:54;11.98;;;9.23;;
22871;SDS011;11603;44.910;8.630;2023-02-28T07:25:25;13.77;;;9.27;;
22871;SDS011;11603;44.910;8.630;2023-02-28T07:27:52;13.80;;;8.38;;
22871;SDS011;11603;44.910;8.630;2023-02-28T07:30:18;11.25;;;8.00;;
22871;SDS011;11603;44.910;8.630;2023-02-28T07:32:44;15.13;;;9.85;;
22871;SDS011;11603;44.910;8.630;2023-02-28T07:35:10;14.38;;;9.38;;
22871;SDS011;11603;44.910;8.630;2023-02-28T07:37:36;12.25;;;8.48;;
22871;SDS011;11603;44.910;8.630;2023-02-28T07:40:05;13.07;;;8.82;;
22871;SDS011;11603;44.910;8.630;2023-02-28T07:42:36;11.50;;;7.60;;
22871;SDS011;11603;44.910;8.630;2023-02-28T07:45:03;13.65;;;9.23;;
22871;SDS011;11603;44.910;8.630;2023-02-28T07:47:30;12.70;;;9.23;;
22871;SDS011;11603;44.910;8.630;2023-02-28T07:49:56;24.45;;;8.93;;
22871;SDS011;11603;44.910;8.630;2023-02-28T07:52:22;7.55;;;5.07;;
22871;SDS011;11603;44.910;8.630;2023-02-28T07:54:49;11.57;;;8.95;;
22871;SDS011;11603;44.910;8.630;2023-02-28T07:57:14;12.43;;;8.15;;
22871;SDS011;11603;44.910;8.630;2023-02-28T07:59:40;13.07;;;9.88;;
22871;SDS011;11603;44.910;8.630;2023-02-28T08:02:06;12.38;;;8.82;;
22871;SDS011;11603;44.910;8.630;2023-02-28T08:04:32;11.95;;;9.30;;
22871;SDS011;11603;44.910;8.630;2023-02-28T08:06:58;11.55;;;8.63;;
22871;SDS011;11603;44.910;8.630;2023-02-28T08:09:23;12.32;;;7.88;;
22871;SDS011;11603;44.910;8.630;2023-02-28T08:11:49;13.35;;;9.98;;
22871;SDS011;11603;44.910;8.630;2023-02-28T08:14:15;14.18;;;9.70;;
22871;SDS011;11603;44.910;8.630;2023-02-28T08:16:40;13.05;;;8.20;;
22871;SDS011;11603;44.910;8.630;2023-02-28T08:19:08;14.63;;;10.15;;
22871;SDS011;11603;44.910;8.630;2023-02-28T08:21:34;11.70;;;9.00;;
22871;SDS011;11603;44.910;8.630;2023-02-28T08:24:00;11.98;;;9.55;;
22871;SDS011;11603;44.910;8.630;2023-02-28T08:26:25;11.60;;;8.60;;
22871;SDS011;11603;44.910;8.630;2023-02-28T08:28:51;11.48;;;8.35;;
22871;SDS011;11603;44.910;8.630;2023-02-28T08:31:17;12.55;;;9.05;;
22871;SDS011;11603;44.910;8.630;2023-02-28T08:33:42;14.20;;;8.32;;
22871;SDS011;11603;44.910;8.630;2023-02-28T08:36:09;13.52;;;9.20;;
22871;SDS011;11603;44.910;8.630;2023-02-28T08:38:36;13.43;;;9.43;;
22871;SDS011;11603;44.910;8.630;2023-02-28T08:41:03;11.55;;;8.55;;
22871;SDS011;11603;44.910;8.630;2023-02-28T08:43:32;9.77;;;6.93;;
22871;SDS011;11603;44.910;8.630;2023-02-28T08:45:58;12.15;;;9.60;;
22871;SDS011;11603;44.910;8.630;2023-02-28T08:48:28;13.10;;;9.20;;
22871;SDS011;11603;44.910;8.630;2023-02-28T08:50:58;13.35;;;9.88;;
22871;SDS011;11603;44.910;8.630;2023-02-28T08:53:25;13.45;;;8.60;;
22871;SDS011;11603;44.910;8.630;2023-02-28T08:55:58;11.30;;;7.75;;
22871;SDS011;11603;44.910;8.630;2023-02-28T08:58:25;15.57;;;10.60;;
22871;SDS011;11603;44.910;8.630;2023-02-28T09:00:51;15.95;;;9.85;;
22871;SDS011;11603;44.910;8.630;2023-02-28T09:03:17;15.80;;;10.27;;
22871;SDS011;11603;44.910;8.630;2023-02-28T09:05:55;13.82;;;9.63;;
22871;SDS011;11603;44.910;8.630;2023-02-28T09:08:22;12.35;;;10.20;;
22871;SDS011;11603;44.910;8.630;2023-02-28T09:10:49;11.93;;;9.93;;
22871;SDS011;11603;44.910;8.630;2023-02-28T09:13:16;11.23;;;8.90;;
22871;SDS011;11603;44.910;8.630;2023-02-28T09:15:42;15.60;;;9.70;;
22871;SDS011;11603;44.910;8.630;2023-02-28T09:18:07;13.73;;;9.60;;
22871;SDS011;11603;44.910;8.630;2023-02-28T09:20:33;14.07;;;9.95;;
22871;SDS011;11603;44.910;8.630;2023-02-28T09:22:58;14.10;;;9.98;;
22871;SDS011;11603;44.910;8.630;2023-02-28T09:25:24;12.25;;;9.95;;
22871;SDS011;11603;44.910;8.630;2023-02-28T09:27:49;12.15;;;9.20;;
22871;SDS011;11603;44.910;8.630;2023-02-28T09:30:15;15.23;;;9.77;;
22871;SDS011;11603;44.910;8.630;2023-02-28T09:32:41;13.23;;;8.00;;
22871;SDS011;11603;44.910;8.630;2023-02-28T09:35:06;12.70;;;9.30;;
22871;SDS011;11603;44.910;8.630;2023-02-28T09:37:32;13.55;;;8.57;;
22871;SDS011;11603;44.910;8.630;2023-02-28T09:39:57;11.90;;;8.05;;
22871;SDS011;11603;44.910;8.630;2023-02-28T09:42:24;14.10;;;9.68;;
22871;SDS011;11603;44.910;8.630;2023-02-28T09:44:56;13.50;;;10.20;;
22871;SDS011;11603;44.910;8.630;2023-02-28T09:47:32;10.63;;;8.15;;
22871;SDS011;11603;44.910;8.630;2023-02-28T09:50:23;13.27;;;9.95;;
22871;SDS011;11603;44.910;8.630;2023-02-28T09:52:52;14.00;;;9.85;;
22871;SDS011;11603;44.910;8.630;2023-02-28T09:57:45;12.30;;;10.27;;
22871;SDS011;11603;44.910;8.630;2023-02-28T10:05:37;17.17;;;10.80;;
22871;SDS011;11603;44.910;8.630;2023-02-28T10:10:55;11.90;;;10.07;;
22871;SDS011;11603;44.910;8.630;2023-02-28T10:16:22;18.33;;;10.77;;
22871;SDS011;11603;44.910;8.630;2023-02-28T10:18:56;16.40;;;10.75;;
22871;SDS011;11603;44.910;8.630;2023-02-28T10:21:31;14.07;;;8.05;;
22871;SDS011;11603;44.910;8.630;2023-02-28T10:26:58;12.75;;;8.60;;
22871;SDS011;11603;44.910;8.630;2023-02-28T10:29:26;13.93;;;8.95;;
22871;SDS011;11603;44.910;8.630;2023-02-28T10:31:56;12.13;;;9.00;;
22871;SDS011;11603;44.910;8.630;2023-02-28T10:34:22;11.10;;;8.65;;
22871;SDS011;11603;44.910;8.630;2023-02-28T10:36:48;9.43;;;7.03;;
22871;SDS011;11603;44.910;8.630;2023-02-28T10:42:26;12.30;;;9.25;;
22871;SDS011;11603;44.910;8.630;2023-02-28T10:45:06;14.02;;;9.55;;
22871;SDS011;11603;44.910;8.630;2023-02-28T10:47:49;9.43;;;6.05;;
22871;SDS011;11603;44.910;8.630;2023-02-28T10:50:26;15.63;;;6.75;;
22871;SDS011;11603;44.910;8.630;2023-02-28T10:52:53;13.13;;;9.68;;
22871;SDS011;11603;44.910;8.630;2023-02-28T10:55:20;11.07;;;8.13;;
22871;SDS011;11603;44.910;8.630;2023-02-28T10:57:50;8.02;;;6.32;;
22871;SDS011;11603;44.910;8.630;2023-02-28T11:00:18;8.88;;;6.60;;
22871;SDS011;11603;44.910;8.630;2023-02-28T11:02:46;12.13;;;8.73;;
22871;SDS011;11603;44.910;8.630;2023-02-28T11:05:32;10.98;;;8.55;;
22871;SDS011;11603;44.910;8.630;2023-02-28T11:08:05;9.93;;;7.45;;
22871;SDS011;11603;44.910;8.630;2023-02-28T11:10:37;14.43;;;9.10;;
22871;SDS011;11603;44.910;8.630;2023-02-28T11:13:03;11.38;;;7.75;;
22871;SDS011;11603;44.910;8.630;2023-02-28T11:15:31;9.85;;;7.15;;
22871;SDS011;11603;44.910;8.630;2023-02-28T11:18:05;11.35;;;8.25;;
22871;SDS011;11603;44.910;8.630;2023-02-28T11:20:34;13.45;;;8.35;;
22871;SDS011;11603;44.910;8.630;2023-02-28T11:23:00;10.63;;;7.53;;
22871;SDS011;11603;44.910;8.630;2023-02-28T11:25:29;12.63;;;9.63;;
22871;SDS011;11603;44.910;8.630;2023-02-28T11:27:58;14.38;;;10.13;;
22871;SDS011;11603;44.910;8.630;2023-02-28T11:30:37;11.05;;;7.53;;
22871;SDS011;11603;44.910;8.630;2023-02-28T11:36:02;12.52;;;9.70;;
22871;SDS011;11603;44.910;8.630;2023-02-28T11:38:34;11.55;;;8.93;;
22871;SDS011;11603;44.910;8.630;2023-02-28T11:43:58;14.60;;;10.10;;
22871;SDS011;11603;44.910;8.630;2023-02-28T11:46:47;13.65;;;9.60;;
22871;SDS011;11603;44.910;8.630;2023-02-28T11:52:01;12.18;;;8.40;;
22871;SDS011;11603;44.910;8.630;2023-02-28T12:08:27;15.85;;;10.52;;
22871;SDS011;11603;44.910;8.630;2023-02-28T12:13:45;16.33;;;10.48;;
22871;SDS011;11603;44.910;8.630;2023-02-28T12:19:20;14.23;;;10.27;;
22871;SDS011;11603;44.910;8.630;2023-02-28T12:27:10;12.85;;;10.55;;
22871;SDS011;11603;44.910;8.630;2023-02-28T12:29:45;14.88;;;11.77;;
22871;SDS011;11603;44.910;8.630;2023-02-28T12:32:21;16.08;;;11.23;;
22871;SDS011;11603;44.910;8.630;2023-02-28T12:34:56;15.57;;;11.35;;
22871;SDS011;11603;44.910;8.630;2023-02-28T12:40:12;18.17;;;12.50;;
22871;SDS011;11603;44.910;8.630;2023-02-28T12:42:49;15.68;;;11.30;;
22871;SDS011;11603;44.910;8.630;2023-02-28T12:47:45;15.68;;;11.75;;
22871;SDS011;11603;44.910;8.630;2023-02-28T12:50:15;15.73;;;11.57;;
22871;SDS011;11603;44.910;8.630;2023-02-28T12:52:51;15.50;;;11.98;;
22871;SDS011;11603;44.910;8.630;2023-02-28T12:55:23;22.35;;;12.10;;
22871;SDS011;11603;44.910;8.630;2023-02-28T12:58:05;15.80;;;11.38;;
22871;SDS011;11603;44.910;8.630;2023-02-28T13:09:22;18.42;;;12.15;;
22871;SDS011;11603;44.910;8.630;2023-02-28T13:11:49;14.77;;;11.75;;
22871;SDS011;11603;44.910;8.630;2023-02-28T13:19:36;15.52;;;12.20;;
22871;SDS011;11603;44.910;8.630;2023-02-28T13:22:04;16.75;;;11.90;;
22871;SDS011;11603;44.910;8.630;2023-02-28T13:24:38;15.85;;;12.88;;
22871;SDS011;11603;44.910;8.630;2023-02-28T13:29:49;18.45;;;12.25;;
22871;SDS011;11603;44.910;8.630;2023-02-28T13:47:29;14.70;;;12.40;;
22871;SDS011;11603;44.910;8.630;2023-02-28T13:50:14;18.73;;;13.70;;
22871;SDS011;11603;44.910;8.630;2023-02-28T14:06:55;16.88;;;14.18;;
22871;SDS011;11603;44.910;8.630;2023-02-28T14:09:32;19.15;;;14.27;;
22871;SDS011;11603;44.910;8.630;2023-02-28T14:15:18;17.60;;;14.35;;
22871;SDS011;11603;44.910;8.630;2023-02-28T14:17:52;19.38;;;13.63;;
22871;SDS011;11603;44.910;8.630;2023-02-28T14:20:20;18.10;;;14.05;;
22871;SDS011;11603;44.910;8.630;2023-02-28T14:25:59;18.08;;;13.75;;
22871;SDS011;11603;44.910;8.630;2023-02-28T14:31:43;18.67;;;15.02;;
22871;SDS011;11603;44.910;8.630;2023-02-28T14:34:25;17.85;;;14.48;;
22871;SDS011;11603;44.910;8.630;2023-02-28T14:37:08;18.85;;;14.65;;
22871;SDS011;11603;44.910;8.630;2023-02-28T14:39:41;18.40;;;14.50;;
22871;SDS011;11603;44.910;8.630;2023-02-28T14:42:28;19.48;;;15.30;;
22871;SDS011;11603;44.910;8.630;2023-02-28T14:44:56;19.58;;;14.70;;
22871;SDS011;11603;44.910;8.630;2023-02-28T14:47:26;18.13;;;14.57;;
22871;SDS011;11603;44.910;8.630;2023-02-28T14:49:55;27.83;;;15.45;;
22871;SDS011;11603;44.910;8.630;2023-02-28T14:52:26;17.02;;;14.75;;
22871;SDS011;11603;44.910;8.630;2023-02-28T14:54:55;18.38;;;14.00;;
22871;SDS011;11603;44.910;8.630;2023-02-28T15:02:43;22.48;;;15.52;;
22871;SDS011;11603;44.910;8.630;2023-02-28T15:07:37;18.65;;;14.73;;
22871;SDS011;11603;44.910;8.630;2023-02-28T15:10:49;17.25;;;14.50;;
22871;SDS011;11603;44.910;8.630;2023-02-28T15:12:56;19.17;;;15.32;;
22871;SDS011;11603;44.910;8.630;2023-02-28T15:15:27;17.27;;;14.05;;
22871;SDS011;11603;44.910;8.630;2023-02-28T15:18:07;18.55;;;14.60;;
22871;SDS011;11603;44.910;8.630;2023-02-28T15:20:40;17.58;;;14.23;;
22871;SDS011;11603;44.910;8.630;2023-02-28T15:23:08;17.02;;;14.43;;
22871;SDS011;11603;44.910;8.630;2023-02-28T15:25:35;20.65;;;15.25;;
22871;SDS011;11603;44.910;8.630;2023-02-28T15:28:01;17.58;;;14.50;;
22871;SDS011;11603;44.910;8.630;2023-02-28T15:30:27;18.77;;;15.07;;
22871;SDS011;11603;44.910;8.630;2023-02-28T15:35:38;18.45;;;15.35;;
22871;SDS011;11603;44.910;8.630;2023-02-28T15:38:14;21.50;;;15.57;;
22871;SDS011;11603;44.910;8.630;2023-02-28T15:40:52;19.33;;;14.25;;
22871;SDS011;11603;44.910;8.630;2023-02-28T15:45:52;18.55;;;13.77;;
22871;SDS011;11603;44.910;8.630;2023-02-28T15:48:24;17.50;;;13.95;;
22871;SDS011;11603;44.910;8.630;2023-02-28T15:50:53;18.40;;;14.18;;
22871;SDS011;11603;44.910;8.630;2023-02-28T15:53:22;18.10;;;13.68;;
22871;SDS011;11603;44.910;8.630;2023-02-28T15:55:55;21.92;;;13.65;;
22871;SDS011;11603;44.910;8.630;2023-02-28T15:58:26;17.92;;;13.65;;
22871;SDS011;11603;44.910;8.630;2023-02-28T16:03:56;19.13;;;13.93;;
22871;SDS011;11603;44.910;8.630;2023-02-28T16:07:12;19.45;;;14.18;;
22871;SDS011;11603;44.910;8.630;2023-02-28T16:09:23;17.70;;;14.05;;
22871;SDS011;11603;44.910;8.630;2023-02-28T16:11:49;18.30;;;14.15;;
22871;SDS011;11603;44.910;8.630;2023-02-28T16:14:19;19.00;;;13.50;;
22871;SDS011;11603;44.910;8.630;2023-02-28T16:16:51;20.55;;;14.32;;
22871;SDS011;11603;44.910;8.630;2023-02-28T16:19:18;20.63;;;14.70;;
22871;SDS011;11603;44.910;8.630;2023-02-28T16:21:45;17.98;;;14.02;;
22871;SDS011;11603;44.910;8.630;2023-02-28T16:24:10;23.10;;;15.00;;
22871;SDS011;11603;44.910;8.630;2023-02-28T16:26:36;16.45;;;13.30;;
22871;SDS011;11603;44.910;8.630;2023-02-28T16:29:04;19.42;;;14.25;;
22871;SDS011;11603;44.910;8.630;2023-02-28T16:31:31;17.00;;;13.88;;
22871;SDS011;11603;44.910;8.630;2023-02-28T16:34:00;17.23;;;13.98;;
22871;SDS011;11603;44.910;8.630;2023-02-28T16:36:25;19.35;;;14.38;;
22871;SDS011;11603;44.910;8.630;2023-02-28T16:38:51;25.25;;;13.65;;
22871;SDS011;11603;44.910;8.630;2023-02-28T16:41:20;18.02;;;14.13;;
22871;SDS011;11603;44.910;8.630;2023-02-28T16:43:51;16.83;;;12.98;;
22871;SDS011;11603;44.910;8.630;2023-02-28T16:46:18;18.00;;;14.07;;
22871;SDS011;11603;44.910;8.630;2023-02-28T16:48:45;19.23;;;13.73;;
22871;SDS011;11603;44.910;8.630;2023-02-28T16:51:17;18.88;;;13.82;;
22871;SDS011;11603;44.910;8.630;2023-02-28T16:53:43;18.23;;;13.77;;
22871;SDS011;11603;44.910;8.630;2023-02-28T16:56:22;17.90;;;13.40;;
22871;SDS011;11603;44.910;8.630;2023-02-28T16:58:49;17.92;;;13.23;;
22871;SDS011;11603;44.910;8.630;2023-02-28T17:01:16;19.88;;;13.70;;
22871;SDS011;11603;44.910;8.630;2023-02-28T17:03:46;20.85;;;14.73;;
22871;SDS011;11603;44.910;8.630;2023-02-28T17:06:21;18.13;;;13.75;;
22871;SDS011;11603;44.910;8.630;2023-02-28T17:08:48;18.77;;;15.02;;
22871;SDS011;11603;44.910;8.630;2023-02-28T17:11:15;18.85;;;13.68;;
22871;SDS011;11603;44.910;8.630;2023-02-28T17:13:41;18.98;;;14.48;;
22871;SDS011;11603;44.910;8.630;2023-02-28T17:16:10;21.92;;;14.57;;
22871;SDS011;11603;44.910;8.630;2023-02-28T17:18:57;20.52;;;14.48;;
22871;SDS011;11603;44.910;8.630;2023-02-28T17:21:24;22.02;;;14.75;;
22871;SDS011;11603;44.910;8.630;2023-02-28T17:23:50;22.35;;;14.63;;
22871;SDS011;11603;44.910;8.630;2023-02-28T17:26:16;21.67;;;15.38;;
22871;SDS011;11603;44.910;8.630;2023-02-28T17:28:45;21.13;;;15.73;;